Time;durP1;ratioP1;P1;durP2;ratioP2;P2;SDS_P1;SDS_P2;PMS_P1;PMS_P2;Temp;Humidity;BMP_temperature;BMP_pressure;BME280_temperature;BME280_humidity;BME280_pressure;Samples;Min_cycle;Max_cycle;Signal;HPM_P1;HPM_P2
2022/03/23 00:02:03;;;;;;;18.48;12.20;;;9.30;96.70;;;;;;4981042;28;20074;-78
2022/03/23 00:04:32;;;;;;;17.27;12.13;;;9.30;96.70;;;;;;4980638;28;20051;-78
2022/03/23 00:07:00;;;;;;;15.27;12.23;;;9.30;96.70;;;;;;4964408;28;20050;-78
2022/03/23 00:09:29;;;;;;;16.50;11.70;;;9.30;96.70;;;;;;4984709;28;20051;-78
2022/03/23 00:12:19;;;;;;;15.20;12.48;;;9.10;96.70;;;;;;4966781;28;21584;-77
2022/03/23 00:14:48;;;;;;;16.67;11.93;;;9.10;96.70;;;;;;4979798;28;20425;-77
2022/03/23 00:17:16;;;;;;;16.60;12.57;;;9.20;96.70;;;;;;4997463;28;20066;-78
2022/03/23 00:19:46;;;;;;;15.23;12.40;;;9.10;96.70;;;;;;4964942;28;20050;-78
2022/03/23 00:22:14;;;;;;;15.75;12.45;;;9.10;96.70;;;;;;4969601;28;20775;-78
2022/03/23 00:24:43;;;;;;;14.68;11.40;;;9.10;96.70;;;;;;4978555;28;20326;-78
2022/03/23 00:27:11;;;;;;;22.63;15.27;;;9.00;96.70;;;;;;4965185;28;20046;-78
2022/03/23 00:29:41;;;;;;;23.45;16.10;;;8.90;96.70;;;;;;4963213;28;20055;-78
2022/03/23 00:32:10;;;;;;;25.20;15.75;;;9.00;96.70;;;;;;4964994;28;20153;-78
2022/03/23 00:34:38;;;;;;;19.48;15.02;;;9.10;96.70;;;;;;4995959;28;20063;-78
2022/03/23 00:37:07;;;;;;;14.15;11.55;;;9.00;96.70;;;;;;4966385;28;20054;-78
2022/03/23 00:39:35;;;;;;;11.90;9.27;;;9.00;96.70;;;;;;4962299;28;20046;-77
2022/03/23 00:42:04;;;;;;;10.45;8.07;;;9.00;96.70;;;;;;5001302;28;20374;-78
2022/03/23 00:44:33;;;;;;;14.23;7.47;;;9.00;96.70;;;;;;4963391;28;20511;-78
2022/03/23 00:47:04;;;;;;;9.15;6.60;;;8.80;96.70;;;;;;4962710;28;20166;-78
2022/03/23 00:49:32;;;;;;;8.95;6.90;;;8.70;96.70;;;;;;4996651;28;20046;-77
2022/03/23 00:52:05;;;;;;;9.35;6.78;;;8.60;96.70;;;;;;4964749;28;20472;-78
2022/03/23 00:54:35;;;;;;;9.02;6.45;;;8.50;96.70;;;;;;4960889;28;20448;-78
2022/03/23 00:57:04;;;;;;;10.13;6.25;;;8.60;96.70;;;;;;4975906;28;20137;-78
2022/03/23 00:59:33;;;;;;;8.18;6.00;;;8.50;96.70;;;;;;4982053;28;20061;-79
2022/03/23 01:02:05;;;;;;;9.82;5.60;;;8.50;96.70;;;;;;4964903;28;20049;-78
2022/03/23 01:04:35;;;;;;;7.72;5.97;;;8.50;96.70;;;;;;5019945;28;20055;-77
2022/03/23 01:07:04;;;;;;;9.05;6.35;;;8.50;96.70;;;;;;4965031;28;20038;-78
2022/03/23 01:09:36;;;;;;;7.70;6.03;;;8.60;96.70;;;;;;5015245;28;20046;-78
2022/03/23 01:12:05;;;;;;;7.10;5.07;;;8.40;96.70;;;;;;4963351;28;20071;-78
2022/03/23 01:14:33;;;;;;;7.63;5.63;;;8.40;96.70;;;;;;4965606;28;20047;-77
2022/03/23 01:17:05;;;;;;;8.05;5.50;;;8.40;96.70;;;;;;4998762;28;20051;-78
2022/03/23 01:19:34;;;;;;;9.07;6.20;;;8.40;96.70;;;;;;5002578;28;20495;-78
2022/03/23 01:22:04;;;;;;;7.65;5.55;;;8.50;96.70;;;;;;4967122;28;20051;-77
2022/03/23 01:24:35;;;;;;;7.07;5.40;;;8.30;96.70;;;;;;4970659;28;20047;-77
2022/03/23 01:27:04;;;;;;;8.35;5.50;;;8.40;96.70;;;;;;4999717;28;20043;-77
2022/03/23 01:29:32;;;;;;;7.85;5.72;;;8.50;96.60;;;;;;5005347;28;20049;-78
2022/03/23 01:32:01;;;;;;;7.25;5.13;;;8.30;96.30;;;;;;4997586;28;20591;-78
2022/03/23 01:34:31;;;;;;;7.40;5.15;;;8.20;96.60;;;;;;4969433;28;20055;-78
2022/03/23 01:36:59;;;;;;;7.10;5.47;;;8.20;96.30;;;;;;5018084;28;20056;-78
2022/03/23 01:39:28;;;;;;;8.27;4.85;;;8.20;96.40;;;;;;5003750;28;20051;-79
2022/03/23 01:41:56;;;;;;;8.50;5.95;;;8.30;96.10;;;;;;4998841;28;20043;-78
2022/03/23 01:44:27;;;;;;;7.10;4.85;;;8.30;95.90;;;;;;4968935;28;20527;-78
2022/03/23 01:47:01;;;;;;;9.00;5.22;;;8.30;95.90;;;;;;4981769;28;20070;-78
2022/03/23 01:49:34;;;;;;;7.80;5.32;;;8.30;95.90;;;;;;4971458;28;20121;-77
2022/03/23 01:52:05;;;;;;;8.30;4.85;;;8.20;96.10;;;;;;4965748;28;20479;-77
2022/03/23 01:54:36;;;;;;;9.32;5.65;;;8.20;96.40;;;;;;4992673;28;20074;-77
2022/03/23 01:57:06;;;;;;;6.13;5.20;;;8.30;96.70;;;;;;4998436;28;20050;-77
2022/03/23 01:59:36;;;;;;;10.25;6.05;;;7.70;96.70;;;;;;4995671;28;20520;-78
2022/03/23 02:02:05;;;;;;;8.45;5.78;;;7.50;96.70;;;;;;4969127;28;20074;-77
2022/03/23 02:04:41;;;;;;;7.75;5.38;;;7.50;96.70;;;;;;4997944;28;20158;-78
2022/03/23 02:07:10;;;;;;;9.73;5.88;;;7.60;96.70;;;;;;4965532;28;20074;-78
2022/03/23 02:09:43;;;;;;;8.13;6.18;;;7.70;96.70;;;;;;4968142;28;20043;-78
2022/03/23 02:12:15;;;;;;;10.55;7.10;;;7.80;96.70;;;;;;4971668;28;20081;-77
2022/03/23 02:14:46;;;;;;;10.73;6.82;;;7.70;96.70;;;;;;4966509;28;20078;-77
2022/03/23 02:17:15;;;;;;;10.63;6.60;;;7.80;96.70;;;;;;4978847;28;20043;-76
2022/03/23 02:19:45;;;;;;;9.13;6.80;;;7.80;96.70;;;;;;4998776;28;20059;-78
2022/03/23 02:22:16;;;;;;;7.70;6.00;;;7.70;96.70;;;;;;5003468;28;20058;-78
2022/03/23 02:24:48;;;;;;;8.30;6.40;;;7.70;96.70;;;;;;4967519;28;20114;-77
2022/03/23 02:27:18;;;;;;;7.75;5.35;;;7.50;96.70;;;;;;4966549;28;20146;-77
2022/03/23 02:29:47;;;;;;;8.05;5.78;;;7.50;96.70;;;;;;4998013;28;20070;-78
2022/03/23 02:32:16;;;;;;;7.70;4.97;;;7.40;96.70;;;;;;4970287;28;20074;-78
2022/03/23 02:34:46;;;;;;;7.95;5.40;;;7.40;96.70;;;;;;4982575;28;20051;-77
2022/03/23 02:37:16;;;;;;;7.57;5.22;;;7.40;96.70;;;;;;4983170;28;20142;-78
2022/03/23 02:39:44;;;;;;;7.80;5.65;;;7.40;96.70;;;;;;4969758;28;20049;-78
2022/03/23 02:42:12;;;;;;;7.05;5.10;;;7.40;96.70;;;;;;4970832;28;20386;-77
2022/03/23 02:44:40;;;;;;;7.65;5.22;;;7.20;96.70;;;;;;4983251;28;20061;-78
2022/03/23 02:47:09;;;;;;;9.27;5.45;;;7.10;96.70;;;;;;4965648;28;20049;-78
2022/03/23 02:49:39;;;;;;;7.30;4.60;;;7.20;96.70;;;;;;4999304;28;20057;-78
2022/03/23 02:52:07;;;;;;;7.07;5.00;;;7.00;96.70;;;;;;4967895;28;20101;-77
2022/03/23 03:03:26;;;;;;;10.27;6.32;;;7.00;96.70;;;;;;4981851;28;20531;-78
2022/03/23 03:05:54;;;;;;;8.85;6.78;;;7.20;96.70;;;;;;4986449;28;20055;-78
2022/03/23 03:11:11;;;;;;;;;;;7.10;96.70;;;;;;4974626;28;20516;-77
2022/03/23 03:13:40;;;;;;;10.38;7.32;;;7.00;96.70;;;;;;4998034;28;20016;-78
2022/03/23 03:16:08;;;;;;;10.55;7.32;;;7.00;96.70;;;;;;4998798;28;20457;-77
2022/03/23 03:18:37;;;;;;;9.45;7.82;;;6.90;96.70;;;;;;4965709;28;20043;-77
2022/03/23 03:21:06;;;;;;;14.52;8.43;;;6.80;96.70;;;;;;4985493;28;20047;-77
2022/03/23 03:23:36;;;;;;;10.48;7.10;;;6.90;96.70;;;;;;5001759;28;20524;-77
2022/03/23 03:26:06;;;;;;;11.57;7.72;;;7.10;96.70;;;;;;4967673;28;20070;-77
2022/03/23 03:28:37;;;;;;;9.68;7.10;;;7.10;96.70;;;;;;4984780;28;20129;-78
2022/03/23 03:31:07;;;;;;;11.02;7.85;;;7.00;96.70;;;;;;4994861;28;20410;-78
2022/03/23 03:33:36;;;;;;;9.82;7.65;;;7.00;96.70;;;;;;4998289;28;20054;-77
2022/03/23 03:36:06;;;;;;;12.30;7.05;;;6.90;96.70;;;;;;4965008;28;20071;-79
2022/03/23 03:38:35;;;;;;;10.85;7.80;;;7.00;96.70;;;;;;4987979;28;20050;-78
2022/03/23 03:41:03;;;;;;;10.07;6.78;;;7.00;96.70;;;;;;4985932;28;20050;-78
2022/03/23 03:43:32;;;;;;;10.25;6.68;;;7.00;96.70;;;;;;5005089;28;20109;-78
2022/03/23 03:46:06;;;;;;;9.88;6.13;;;7.00;96.70;;;;;;4984988;28;20070;-78
2022/03/23 03:48:35;;;;;;;12.73;6.38;;;7.00;96.70;;;;;;5007415;28;20046;-77
2022/03/23 03:51:03;;;;;;;8.95;6.05;;;6.80;96.70;;;;;;4981926;28;20042;-77
2022/03/23 03:53:31;;;;;;;9.20;4.90;;;6.70;96.70;;;;;;5017353;28;20064;-78
2022/03/23 03:56:08;;;;;;;6.32;4.78;;;6.60;96.70;;;;;;4983005;28;21836;-77
2022/03/23 03:58:36;;;;;;;6.60;4.60;;;6.70;96.70;;;;;;4974767;28;20132;-78
2022/03/23 04:01:06;;;;;;;6.53;4.68;;;6.60;96.70;;;;;;5016881;28;20774;-78
2022/03/23 04:03:35;;;;;;;8.43;4.72;;;6.60;96.70;;;;;;4969076;28;20069;-78
2022/03/23 04:06:06;;;;;;;7.70;4.30;;;6.50;96.70;;;;;;4996843;28;20096;-77
2022/03/23 04:08:35;;;;;;;6.80;4.20;;;6.30;96.70;;;;;;5001003;28;20081;-78
2022/03/23 04:11:04;;;;;;;7.22;3.97;;;6.20;96.70;;;;;;4964017;28;20407;-77
2022/03/23 04:13:32;;;;;;;9.73;4.68;;;6.30;96.70;;;;;;4990175;28;20054;-78
2022/03/23 04:16:00;;;;;;;7.15;4.13;;;6.30;96.70;;;;;;4969480;28;20678;-78
2022/03/23 04:18:30;;;;;;;6.07;4.32;;;6.20;96.70;;;;;;4993632;28;20046;-78
2022/03/23 04:20:59;;;;;;;5.82;4.10;;;6.30;96.70;;;;;;4972478;28;20050;-77
2022/03/23 04:23:33;;;;;;;5.78;4.28;;;6.20;96.70;;;;;;5000801;28;20073;-77
2022/03/23 04:26:01;;;;;;;6.78;4.78;;;6.20;96.70;;;;;;4987231;28;20496;-77
2022/03/23 04:28:30;;;;;;;6.07;4.70;;;6.30;96.70;;;;;;5002665;28;20046;-78
2022/03/23 04:31:01;;;;;;;7.05;4.88;;;6.20;96.70;;;;;;5005378;28;20054;-78
2022/03/23 04:33:31;;;;;;;5.78;4.20;;;6.20;96.70;;;;;;4984303;28;20767;-77
2022/03/23 04:35:59;;;;;;;5.43;3.95;;;6.20;96.70;;;;;;4983072;28;20049;-77
2022/03/23 04:38:27;;;;;;;6.20;4.22;;;6.30;96.70;;;;;;4998833;28;20165;-78
2022/03/23 04:40:56;;;;;;;7.00;4.10;;;6.20;96.70;;;;;;4972635;28;20054;-77
2022/03/23 04:43:24;;;;;;;7.32;4.50;;;6.10;96.70;;;;;;4998531;28;20833;-77
2022/03/23 04:45:52;;;;;;;6.75;4.18;;;6.10;96.70;;;;;;4970742;28;20455;-77
2022/03/23 04:48:21;;;;;;;7.50;4.60;;;6.00;96.70;;;;;;4986950;28;20049;-78
2022/03/23 04:50:50;;;;;;;6.18;4.18;;;6.10;96.70;;;;;;4975069;28;20619;-77
2022/03/23 04:53:18;;;;;;;7.32;4.80;;;6.00;96.70;;;;;;4970573;28;20093;-77
2022/03/23 04:55:46;;;;;;;8.23;4.35;;;6.10;96.70;;;;;;4977421;28;20053;-77
2022/03/23 04:58:15;;;;;;;7.20;5.25;;;6.10;96.70;;;;;;4987351;28;20070;-77
2022/03/23 05:00:43;;;;;;;10.75;5.00;;;6.00;96.70;;;;;;4992014;28;20038;-78
2022/03/23 05:03:13;;;;;;;9.45;5.45;;;6.00;96.70;;;;;;4986996;28;20587;-77
2022/03/23 05:05:43;;;;;;;6.47;4.32;;;6.00;96.70;;;;;;4990214;28;20046;-78
2022/03/23 05:08:13;;;;;;;7.30;4.32;;;5.90;96.70;;;;;;4969748;28;20495;-77
2022/03/23 05:10:41;;;;;;;7.10;4.55;;;6.00;96.70;;;;;;5008722;28;20055;-77
2022/03/23 05:13:11;;;;;;;7.47;4.75;;;6.00;96.70;;;;;;4972765;28;20136;-76
2022/03/23 05:15:39;;;;;;;8.30;4.85;;;6.10;96.70;;;;;;4970472;28;20050;-78
2022/03/23 05:18:07;;;;;;;6.82;4.90;;;5.90;96.70;;;;;;5004369;28;20052;-78
2022/03/23 05:20:36;;;;;;;7.95;4.35;;;5.80;96.70;;;;;;4993117;28;20046;-77
2022/03/23 05:23:04;;;;;;;6.35;4.53;;;5.90;96.70;;;;;;5004911;28;20125;-78
2022/03/23 05:25:34;;;;;;;7.28;4.50;;;5.80;96.70;;;;;;4970036;28;20125;-77
2022/03/23 05:28:05;;;;;;;6.50;4.88;;;5.70;96.70;;;;;;4974585;28;20622;-77
2022/03/23 05:30:34;;;;;;;5.80;4.35;;;5.60;96.70;;;;;;4975933;28;20073;-78
2022/03/23 05:33:03;;;;;;;6.88;4.43;;;5.60;96.70;;;;;;4989285;28;20394;-83
2022/03/23 05:35:31;;;;;;;5.80;4.57;;;5.60;96.70;;;;;;5008525;28;20054;-83
2022/03/23 05:37:59;;;;;;;8.27;5.13;;;5.60;96.70;;;;;;4989758;28;20060;-82
2022/03/23 05:40:27;;;;;;;9.43;4.70;;;5.60;96.70;;;;;;4980448;28;20149;-83
2022/03/23 05:42:57;;;;;;;7.43;4.47;;;5.60;96.70;;;;;;4994937;28;20045;-84
2022/03/23 05:45:25;;;;;;;7.80;4.90;;;5.70;96.70;;;;;;4991837;28;20319;-84
2022/03/23 05:47:53;;;;;;;10.10;5.07;;;5.60;96.70;;;;;;4994213;28;20049;-84
2022/03/23 05:50:21;;;;;;;9.50;6.07;;;5.60;96.70;;;;;;4986139;28;20057;-84
2022/03/23 05:52:53;;;;;;;7.78;4.72;;;5.70;96.70;;;;;;5010020;28;20058;-83
2022/03/23 05:55:21;;;;;;;11.05;5.22;;;5.90;96.70;;;;;;4984158;28;20038;-83
2022/03/23 05:57:49;;;;;;;8.90;4.97;;;5.90;96.70;;;;;;4989276;28;20042;-84
2022/03/23 06:00:19;;;;;;;8.20;4.95;;;5.90;96.70;;;;;;4994379;28;20073;-83
2022/03/23 06:02:50;;;;;;;10.05;5.10;;;6.00;96.70;;;;;;5003748;28;20591;-83
2022/03/23 06:05:19;;;;;;;9.85;5.32;;;6.00;96.70;;;;;;4973779;28;20050;-83
2022/03/23 06:07:47;;;;;;;6.55;4.45;;;6.00;96.70;;;;;;5014764;28;20069;-83
2022/03/23 06:10:15;;;;;;;5.32;4.32;;;6.00;96.70;;;;;;5011323;28;20416;-83
2022/03/23 06:12:43;;;;;;;6.43;4.45;;;6.00;96.70;;;;;;4975755;28;20078;-84
2022/03/23 06:15:11;;;;;;;6.72;4.80;;;5.90;96.70;;;;;;4981929;28;20046;-84
2022/03/23 06:17:40;;;;;;;9.88;5.20;;;6.00;96.70;;;;;;4983330;28;20149;-84
2022/03/23 06:20:09;;;;;;;6.80;4.40;;;6.00;96.70;;;;;;4973942;28;20591;-84
2022/03/23 06:22:37;;;;;;;10.55;5.25;;;6.10;96.70;;;;;;4979833;28;20050;-83
2022/03/23 06:25:07;;;;;;;9.00;5.25;;;6.10;96.70;;;;;;5006120;28;20057;-83
2022/03/23 06:27:36;;;;;;;8.48;5.70;;;6.20;96.70;;;;;;4977713;28;20046;-84
2022/03/23 06:30:05;;;;;;;7.30;5.53;;;6.20;96.70;;;;;;5014850;28;20116;-83
2022/03/23 06:32:33;;;;;;;8.18;5.70;;;6.20;96.70;;;;;;5033427;28;20132;-83
2022/03/23 06:35:06;;;;;;;9.38;5.78;;;6.50;96.70;;;;;;4989171;28;20073;-83
2022/03/23 06:37:34;;;;;;;9.07;5.65;;;6.60;96.70;;;;;;4982389;28;20663;-83
2022/03/23 06:40:03;;;;;;;10.60;6.30;;;6.50;96.70;;;;;;4989810;28;20047;-83
2022/03/23 06:42:31;;;;;;;11.07;5.55;;;6.50;96.70;;;;;;5005871;28;20047;-83
2022/03/23 06:45:02;;;;;;;10.90;5.65;;;6.40;96.70;;;;;;4976034;28;20126;-84
2022/03/23 06:47:32;;;;;;;9.70;5.38;;;6.60;96.70;;;;;;4974790;28;20657;-84
2022/03/23 06:50:00;;;;;;;8.05;5.00;;;6.70;96.70;;;;;;4988979;28;20058;-83
2022/03/23 06:52:33;;;;;;;8.13;5.10;;;6.90;96.70;;;;;;4999961;28;20050;-83
2022/03/23 06:55:01;;;;;;;13.90;6.20;;;6.90;96.70;;;;;;4990751;28;20528;-85
2022/03/23 06:57:29;;;;;;;10.55;5.72;;;7.00;96.70;;;;;;5005301;28;20076;-87
2022/03/23 06:59:58;;;;;;;10.77;6.00;;;7.30;96.70;;;;;;5022767;28;20046;-81
2022/03/23 07:02:26;;;;;;;11.60;6.82;;;7.30;96.70;;;;;;4990459;28;20043;-85
2022/03/23 07:04:54;;;;;;;8.63;5.95;;;7.30;96.70;;;;;;5008614;28;20050;-85
2022/03/23 07:07:22;;;;;;;9.38;6.80;;;7.40;96.70;;;;;;5011879;28;20101;-85
2022/03/23 07:09:52;;;;;;;10.63;6.35;;;7.50;96.70;;;;;;4973421;28;20048;-83
2022/03/23 07:12:20;;;;;;;9.93;6.30;;;7.40;96.70;;;;;;4990739;28;20046;-82
2022/03/23 07:14:48;;;;;;;12.25;6.68;;;7.60;96.70;;;;;;4979144;28;20078;-82
2022/03/23 07:17:17;;;;;;;9.88;6.57;;;7.60;96.70;;;;;;4972586;28;20046;-82
2022/03/23 07:19:46;;;;;;;13.65;6.60;;;7.70;96.70;;;;;;4975414;28;20077;-82
2022/03/23 07:22:15;;;;;;;9.15;6.18;;;7.80;96.70;;;;;;4996332;28;20049;-83
2022/03/23 07:24:45;;;;;;;12.52;6.85;;;7.80;96.70;;;;;;4989530;28;20527;-82
2022/03/23 07:27:16;;;;;;;10.38;6.47;;;7.90;96.70;;;;;;4988739;28;20057;-84
2022/03/23 07:29:48;;;;;;;8.88;5.97;;;8.00;96.70;;;;;;4987901;28;20148;-83
2022/03/23 07:32:16;;;;;;;9.88;6.32;;;8.10;96.70;;;;;;5004397;28;20042;-83
2022/03/23 07:34:44;;;;;;;10.65;6.65;;;8.20;96.70;;;;;;4980793;28;20056;-83
2022/03/23 07:37:12;;;;;;;9.75;5.97;;;8.20;96.70;;;;;;4973000;28;20058;-82
2022/03/23 07:39:41;;;;;;;11.25;7.28;;;8.30;96.70;;;;;;5004600;28;20081;-82
2022/03/23 07:42:11;;;;;;;13.98;7.22;;;8.40;96.70;;;;;;5007599;28;20484;-83
2022/03/23 07:44:40;;;;;;;14.15;7.28;;;8.30;96.70;;;;;;4987574;28;20599;-82
2022/03/23 07:47:10;;;;;;;11.18;6.50;;;8.40;96.70;;;;;;4994486;28;20042;-82
2022/03/23 07:49:39;;;;;;;9.85;6.18;;;8.60;96.70;;;;;;4996417;28;20050;-82
2022/03/23 07:52:08;;;;;;;12.68;6.88;;;8.60;96.70;;;;;;5011753;28;20065;-82
2022/03/23 07:54:36;;;;;;;10.23;6.38;;;8.80;96.70;;;;;;4989727;28;20053;-83
2022/03/23 07:57:05;;;;;;;11.60;5.90;;;8.80;96.60;;;;;;5017378;28;20440;-82
2022/03/23 07:59:34;;;;;;;10.88;6.47;;;8.90;96.60;;;;;;4988333;28;20595;-83
2022/03/23 08:02:04;;;;;;;12.10;7.00;;;9.10;96.50;;;;;;4987258;28;20046;-83
2022/03/23 08:04:32;;;;;;;13.82;7.10;;;9.30;96.20;;;;;;4966930;28;20050;-82
2022/03/23 08:07:01;;;;;;;12.18;7.97;;;9.40;96.20;;;;;;4975926;28;20038;-83
2022/03/23 08:09:29;;;;;;;12.07;8.25;;;9.40;96.00;;;;;;4992267;28;20039;-82
2022/03/23 08:11:57;;;;;;;10.60;7.78;;;9.60;96.00;;;;;;5021453;28;20070;-83
2022/03/23 08:14:25;;;;;;;13.30;8.07;;;9.60;95.70;;;;;;4985878;28;20047;-82
2022/03/23 08:16:54;;;;;;;11.93;7.25;;;9.70;94.70;;;;;;5003898;28;20046;-83
2022/03/23 08:19:24;;;;;;;14.80;8.52;;;9.70;94.90;;;;;;4992980;28;20050;-83
2022/03/23 08:21:52;;;;;;;10.02;7.68;;;9.90;94.50;;;;;;5011654;28;20583;-83
2022/03/23 08:24:21;;;;;;;14.45;7.78;;;9.90;95.00;;;;;;4988967;28;20058;-83
2022/03/23 08:26:49;;;;;;;17.02;8.30;;;9.90;95.00;;;;;;4995915;28;20042;-83
2022/03/23 08:29:17;;;;;;;10.90;8.15;;;10.00;94.50;;;;;;5013920;28;20069;-83
2022/03/23 08:31:46;;;;;;;14.00;8.57;;;10.10;94.30;;;;;;5000292;28;20113;-83
2022/03/23 08:34:14;;;;;;;12.15;8.02;;;10.10;94.20;;;;;;5008110;28;20460;-83
2022/03/23 08:36:44;;;;;;;13.75;7.93;;;10.30;93.70;;;;;;5007847;28;20081;-83
2022/03/23 08:39:12;;;;;;;14.25;8.73;;;10.50;93.30;;;;;;4967924;28;20061;-83
2022/03/23 08:41:40;;;;;;;12.68;8.02;;;10.50;93.00;;;;;;4988778;28;20046;-83
2022/03/23 08:44:09;;;;;;;12.13;8.00;;;10.70;92.60;;;;;;4971524;28;20046;-83
2022/03/23 08:46:37;;;;;;;13.90;8.00;;;10.90;92.50;;;;;;4972592;28;20500;-82
2022/03/23 08:49:05;;;;;;;14.45;7.65;;;11.00;92.20;;;;;;5002927;28;20089;-85
2022/03/23 08:51:33;;;;;;;17.65;8.77;;;11.20;92.10;;;;;;4975445;28;20045;-83
2022/03/23 08:54:04;;;;;;;15.55;8.80;;;11.40;91.40;;;;;;4989039;28;20042;-84
2022/03/23 08:56:32;;;;;;;20.90;8.98;;;11.50;90.80;;;;;;4974629;28;20532;-83
2022/03/23 08:59:00;;;;;;;15.60;8.75;;;11.70;90.60;;;;;;4972996;28;20507;-82
2022/03/23 09:01:28;;;;;;;15.70;8.43;;;11.80;90.80;;;;;;4974504;28;20054;-83
2022/03/23 09:04:01;;;;;;;11.27;7.93;;;12.00;90.40;;;;;;4970572;28;20153;-79
2022/03/23 09:06:29;;;;;;;14.32;7.63;;;12.00;90.50;;;;;;4993695;28;20054;-88
2022/03/23 09:08:57;;;;;;;11.80;7.70;;;12.00;90.30;;;;;;4988301;28;20310;-84
2022/03/23 09:11:27;;;;;;;9.48;7.28;;;12.00;90.20;;;;;;4996935;28;20041;-85
2022/03/23 09:13:57;;;;;;;11.48;7.57;;;12.20;88.80;;;;;;4989007;28;20043;-85
2022/03/23 09:16:25;;;;;;;12.30;7.22;;;12.40;89.20;;;;;;4973564;28;20149;-80
2022/03/23 09:18:54;;;;;;;13.73;7.00;;;12.50;88.10;;;;;;4970514;28;20054;-83
2022/03/23 09:21:23;;;;;;;12.55;7.25;;;12.70;87.20;;;;;;4971248;28;20042;-83
2022/03/23 09:23:51;;;;;;;8.70;7.10;;;12.80;87.70;;;;;;4988148;28;20041;-85
2022/03/23 09:26:20;;;;;;;10.70;6.63;;;12.90;88.20;;;;;;4994183;28;20050;-84
2022/03/23 09:28:51;;;;;;;8.68;6.25;;;13.00;86.80;;;;;;4975888;28;20042;-84
2022/03/23 09:31:19;;;;;;;7.50;5.97;;;13.20;85.80;;;;;;4987363;28;20540;-83
2022/03/23 09:33:48;;;;;;;7.95;6.30;;;13.30;85.30;;;;;;4984742;28;20062;-84
2022/03/23 09:39:04;;;;;;;9.10;6.10;;;13.50;83.70;;;;;;4989645;28;20066;-82
2022/03/23 09:41:32;;;;;;;9.95;6.90;;;13.70;82.80;;;;;;5014521;28;20046;-82
2022/03/23 09:44:03;;;;;;;10.25;6.70;;;13.60;83.70;;;;;;4979464;28;20055;-84
2022/03/23 09:46:32;;;;;;;9.18;6.95;;;13.60;84.30;;;;;;4987317;28;20043;-83
2022/03/23 09:49:01;;;;;;;8.02;6.70;;;13.80;84.70;;;;;;4979063;28;20057;-82
2022/03/23 09:51:32;;;;;;;8.70;6.45;;;14.00;83.80;;;;;;4974053;28;20048;-82
2022/03/23 09:54:01;;;;;;;9.20;6.45;;;14.20;83.40;;;;;;4997110;28;20106;-82
2022/03/23 09:56:29;;;;;;;7.90;6.07;;;14.40;83.70;;;;;;4991240;28;20105;-82
2022/03/23 09:58:57;;;;;;;9.43;6.13;;;14.60;83.20;;;;;;4975877;28;20599;-81
2022/03/23 10:02:15;;;;;;;7.18;6.13;;;14.80;83.10;;;;;;5008218;28;20055;-82
2022/03/23 10:05:34;;;;;;;8.52;5.95;;;15.00;81.70;;;;;;4988927;28;20093;-82
2022/03/23 10:08:42;;;;;;;10.23;6.53;;;15.00;80.20;;;;;;4991033;28;20042;-80
2022/03/23 10:11:53;;;;;;;;;;;15.30;79.20;;;;;;4979562;28;20053;-83
2022/03/23 10:15:08;;;;;;;7.40;5.75;;;15.30;78.40;;;;;;5009387;28;19926;-81
2022/03/23 10:18:23;;;;;;;8.57;6.05;;;15.20;79.30;;;;;;4975032;28;20534;-86
2022/03/23 10:20:53;;;;;;;10.88;6.25;;;15.50;80.20;;;;;;4973162;28;20061;-84
2022/03/23 10:23:22;;;;;;;7.80;6.40;;;15.50;79.10;;;;;;4979676;28;20469;-86
2022/03/23 10:25:51;;;;;;;9.40;6.25;;;15.60;78.80;;;;;;4991383;28;20060;-81
2022/03/23 10:28:19;;;;;;;7.05;6.35;;;15.70;79.00;;;;;;5006343;28;20100;-84
2022/03/23 10:30:47;;;;;;;8.98;6.53;;;15.90;78.20;;;;;;4991781;28;20049;-84
2022/03/23 10:33:20;;;;;;;7.70;6.68;;;15.90;78.60;;;;;;4974154;28;20080;-84
2022/03/23 10:35:48;;;;;;;13.32;6.85;;;15.90;79.00;;;;;;4970773;28;20108;-82
2022/03/23 10:38:19;;;;;;;9.80;6.05;;;15.90;78.40;;;;;;4985571;28;20085;-84
2022/03/23 10:40:49;;;;;;;7.20;6.40;;;16.00;78.40;;;;;;4969699;28;20057;-84
2022/03/23 10:43:21;;;;;;;7.72;6.28;;;16.10;77.40;;;;;;4970281;28;20154;-83
2022/03/23 10:45:54;;;;;;;6.68;5.90;;;16.30;77.50;;;;;;5003675;28;20050;-84
2022/03/23 10:48:22;;;;;;;7.45;5.97;;;16.50;76.20;;;;;;4970335;28;20050;-84
2022/03/23 10:50:51;;;;;;;11.77;5.97;;;16.70;76.30;;;;;;4969589;28;20074;-83
2022/03/23 10:53:31;;;;;;;8.48;6.18;;;16.90;76.60;;;;;;5001802;28;20043;-85
2022/03/23 10:56:00;;;;;;;7.78;5.93;;;16.90;76.10;;;;;;5003649;28;20055;-83
2022/03/23 10:58:29;;;;;;;10.27;6.32;;;17.00;75.00;;;;;;4985388;28;20045;-84
2022/03/23 11:01:01;;;;;;;9.73;6.93;;;17.20;74.30;;;;;;4971337;28;20047;-84
2022/03/23 11:03:40;;;;;;;10.35;6.25;;;17.30;73.90;;;;;;5001846;28;20050;-85
2022/03/23 11:06:10;;;;;;;7.45;6.65;;;17.50;74.60;;;;;;4974586;28;20532;-84
2022/03/23 11:08:42;;;;;;;8.73;6.57;;;17.50;74.20;;;;;;4994457;28;20126;-84
2022/03/23 11:16:39;;;;;;;8.55;6.82;;;18.40;71.30;;;;;;5000016;28;20051;-83
2022/03/23 11:19:13;;;;;;;7.82;6.72;;;18.60;70.80;;;;;;5004443;28;20039;-84
2022/03/23 11:22:02;;;;;;;8.88;6.82;;;18.80;70.60;;;;;;4997840;28;20046;-84
2022/03/23 11:24:36;;;;;;;9.70;6.50;;;18.70;70.40;;;;;;4979335;28;20053;-84
2022/03/23 11:27:06;;;;;;;8.90;6.78;;;18.60;70.20;;;;;;4985253;28;20540;-84
2022/03/23 11:29:37;;;;;;;7.75;6.95;;;18.70;70.10;;;;;;4986458;28;20047;-84
2022/03/23 11:32:08;;;;;;;10.32;6.53;;;18.90;69.70;;;;;;4969575;28;20428;-84
2022/03/23 11:34:37;;;;;;;8.48;6.47;;;18.90;69.50;;;;;;4974654;28;20527;-84
2022/03/23 11:37:07;;;;;;;8.70;6.57;;;19.20;69.00;;;;;;4979103;28;20062;-84
2022/03/23 11:39:36;;;;;;;7.45;6.55;;;19.30;68.90;;;;;;4992052;28;20058;-84
2022/03/23 11:42:05;;;;;;;9.20;6.55;;;19.30;68.40;;;;;;4962941;28;20345;-84
2022/03/23 11:44:36;;;;;;;7.05;6.05;;;19.50;68.40;;;;;;4985342;28;20134;-84
2022/03/23 11:47:10;;;;;;;6.97;6.28;;;19.50;67.20;;;;;;4985250;28;20079;-84
2022/03/23 11:49:47;;;;;;;7.90;6.38;;;19.50;67.20;;;;;;4968697;28;20043;-84
2022/03/23 11:52:31;;;;;;;8.15;6.57;;;19.60;66.60;;;;;;4968872;28;20047;-84
2022/03/23 11:58:15;;;;;;;8.13;6.43;;;19.60;66.10;;;;;;4966535;28;20050;-84
2022/03/23 12:00:47;;;;;;;7.03;6.32;;;19.60;65.90;;;;;;4985036;28;20538;-84
2022/03/23 12:03:45;;;;;;;9.52;6.93;;;19.80;66.60;;;;;;4969797;28;20043;-84
2022/03/23 12:06:15;;;;;;;6.22;5.55;;;19.90;65.20;;;;;;4992224;28;20121;-84
2022/03/23 12:08:49;;;;;;;8.15;6.25;;;20.00;65.50;;;;;;4979232;28;20054;-85
2022/03/23 12:11:49;;;;;;;7.53;6.15;;;19.90;65.20;;;;;;5000426;28;20129;-84
2022/03/23 12:14:23;;;;;;;6.95;6.25;;;19.90;66.20;;;;;;5001110;28;20051;-84
2022/03/23 12:17:16;;;;;;;8.60;6.55;;;19.70;65.80;;;;;;4970486;28;20516;-85
2022/03/23 12:20:07;;;;;;;7.13;5.90;;;19.70;65.40;;;;;;4968246;28;20054;-84
2022/03/23 12:23:08;;;;;;;7.47;6.20;;;19.70;65.10;;;;;;4997588;28;20055;-85
2022/03/23 12:25:48;;;;;;;8.25;6.07;;;19.90;65.10;;;;;;4967086;28;20077;-84
2022/03/23 12:28:40;;;;;;;9.57;5.65;;;20.20;64.90;;;;;;4998170;28;20076;-84
2022/03/23 12:31:10;;;;;;;9.65;6.03;;;19.90;65.80;;;;;;5000755;28;20050;-84
2022/03/23 12:34:02;;;;;;;5.10;4.53;;;20.10;66.00;;;;;;4973150;28;20043;-84
2022/03/23 12:37:19;;;;;;;8.57;5.05;;;20.30;62.30;;;;;;4970676;28;20078;-86
2022/03/23 12:39:26;;;;;;;5.35;4.65;;;20.20;61.60;;;;;;4968642;28;20055;-85
2022/03/23 12:41:55;;;;;;;5.57;5.00;;;20.30;62.60;;;;;;4971978;28;20055;-85
2022/03/23 12:44:34;;;;;;;6.15;4.43;;;20.40;62.60;;;;;;4953072;28;20050;-84
2022/03/23 12:47:06;;;;;;;5.80;4.78;;;20.50;61.90;;;;;;4985529;28;20054;-84
2022/03/23 12:58:06;;;;;;;5.90;4.65;;;21.60;61.30;;;;;;4967678;28;20129;-84
2022/03/23 13:00:38;;;;;;;4.88;4.07;;;21.60;59.70;;;;;;4999933;28;20472;-84
2022/03/23 13:03:53;;;;;;;5.72;4.18;;;21.50;60.80;;;;;;4994454;28;20055;-84
2022/03/23 13:06:33;;;;;;;6.70;4.60;;;21.30;60.90;;;;;;4985684;28;20050;-84
2022/03/23 13:09:02;;;;;;;4.40;4.00;;;21.60;60.60;;;;;;4968915;28;20047;-84
2022/03/23 13:11:32;;;;;;;4.68;4.28;;;21.90;61.60;;;;;;4983813;28;20484;-84
2022/03/23 13:14:01;;;;;;;4.57;3.88;;;21.70;60.60;;;;;;4967847;28;20046;-84
2022/03/23 13:16:35;;;;;;;5.35;4.40;;;21.70;59.90;;;;;;4970447;28;20468;-85
2022/03/23 13:19:04;;;;;;;4.50;3.92;;;21.90;59.90;;;;;;4971332;28;20050;-82
2022/03/23 13:21:34;;;;;;;5.38;4.13;;;22.00;58.80;;;;;;4971030;28;20034;-82
2022/03/23 13:24:05;;;;;;;6.65;4.30;;;22.20;59.20;;;;;;4990546;28;20046;-82
2022/03/23 13:26:35;;;;;;;4.22;3.65;;;22.30;59.60;;;;;;4972151;28;20101;-82
2022/03/23 13:29:07;;;;;;;4.35;3.95;;;22.40;60.00;;;;;;4994705;28;20736;-82
2022/03/23 13:31:39;;;;;;;5.70;4.10;;;22.10;60.10;;;;;;5003927;28;20050;-82
2022/03/23 13:34:09;;;;;;;4.97;3.70;;;22.20;60.60;;;;;;4995320;28;20055;-82
2022/03/23 13:36:40;;;;;;;4.15;3.33;;;22.40;60.30;;;;;;4970554;28;20698;-82
2022/03/23 13:39:11;;;;;;;4.75;3.90;;;22.50;59.20;;;;;;4972261;28;20093;-82
2022/03/23 13:47:29;;;;;;;;;;;22.60;55.90;;;;;;4998307;28;20081;-82
2022/03/23 13:49:59;;;;;;;4.72;3.92;;;22.60;56.60;;;;;;5007799;28;19933;-82